首页
METAR-TAF:

METAR-TAF

机场 :

杰克逊维尔, 佛罗里达州, 美国

纬度: 30-13-07N, 经度: 081-52-36W, 海拔: 25米

当前天气观测

该预报发布于43分钟前的20:50 UTC
风速8节,风向
温度 20°C
湿度 24%
气压 1017 hPa
能見度: 16.1公里
天空无云

METAR: KVQQ 262050Z 36008KT 10SM CLR 20/M01 A3004

时间: 16:33 (21:33 UTC)

预报

该预报发布于3小时和54分钟前的17:39 UTC
预报有效从26日的 18点(UTC)到 27日的 18点(UTC)
风速5节,风向西北
能見度: 10公里
少量云层高于10000英尺
多云层高于25000英尺
从 27日的 0000点(UTC)
风速节,风向
能見度: 10公里
阴天层高于10000英尺
从 27日的 0600点(UTC)
风速节,风向
能見度: 10公里
多云层高于6000英尺
阴天层高于10000英尺
附近有阵雨
从 27日的 1000点(UTC)
风速2节,风向多变
能見度: 10公里
阴天层高于5000英尺
几率 30%
从 27日的 10点(UTC)到 27日的 15点(UTC)
散云层高于800英尺
阴天层高于4000英尺
小雨

TAF: KVQQ 261739Z 2618/2718 31005KT P6SM FEW100 BKN250 FM270000 00000KT P6SM OVC100 FM270600 00000KT P6SM VCSH BKN060 OVC100 FM271000 VRB02KT P6SM OVC050 PROB30 2710/2715 -RA SCT008 OVC040

超过4000个机场的气象观测和天气预报(METAR&TAF报告)。

可查询的气象台以黄色和红色小点在地图上表示。

将鼠标移到小点上方,可查看气象台名称。

然后点击查看天气观测和预报。

如需切换地图:点击带黑十字的绿色按钮放大地图;点击带横线的绿色按钮缩小地图;或者点击绿色箭头查看邻近地区的地图。


METAR-TAF: